createdAt,value
2022-08-11T00:00:18.001Z,2.40
2022-08-11T00:03:09.728Z,2.80
2022-08-11T00:05:56.692Z,3.10
2022-08-11T00:08:31.633Z,2.60
2022-08-11T00:11:04.777Z,3.00
2022-08-11T00:13:41.033Z,2.90
2022-08-11T00:16:17.877Z,3.10
2022-08-11T00:18:51.545Z,3.10
2022-08-11T00:22:01.902Z,2.60
2022-08-11T00:24:13.387Z,2.80
2022-08-11T00:26:52.175Z,2.80
2022-08-11T00:29:27.319Z,2.50
2022-08-11T00:32:01.395Z,2.70
2022-08-11T00:34:34.394Z,2.70
2022-08-11T00:37:12.561Z,2.60
2022-08-11T00:42:55.210Z,2.70
2022-08-11T00:45:33.742Z,2.70
2022-08-11T00:48:20.112Z,3.10
2022-08-11T00:51:07.652Z,2.60
2022-08-11T00:53:46.670Z,2.90
2022-08-11T00:56:33.283Z,2.50
2022-08-11T00:59:39.195Z,2.70
2022-08-11T01:02:44.386Z,2.50
2022-08-11T01:05:51.842Z,2.90
2022-08-11T01:08:49.967Z,2.80
2022-08-11T01:11:33.511Z,2.70
2022-08-11T01:14:33.829Z,2.60
2022-08-11T01:17:41.656Z,2.80
2022-08-11T01:20:54.525Z,2.90
2022-08-11T01:23:45.951Z,2.20
2022-08-11T01:27:01.979Z,3.10
2022-08-11T01:29:58.426Z,2.90
2022-08-11T01:32:46.539Z,3.20
2022-08-11T01:35:26.739Z,3.50
2022-08-11T01:38:26.046Z,2.80
2022-08-11T01:41:06.350Z,2.90
2022-08-11T01:44:20.937Z,2.90
2022-08-11T01:47:53.015Z,2.60
2022-08-11T01:50:46.726Z,3.10
2022-08-11T01:53:27.408Z,2.90
2022-08-11T01:56:15.064Z,3.00
2022-08-11T01:59:00.575Z,2.80
2022-08-11T02:01:44.567Z,2.80
2022-08-11T02:04:33.849Z,2.90
2022-08-11T02:07:19.135Z,3.00
2022-08-11T02:10:36.391Z,3.60
2022-08-11T02:13:35.499Z,3.10
2022-08-11T02:16:22.624Z,2.80
2022-08-11T02:19:42.248Z,3.10
2022-08-11T02:22:42.639Z,4.00
2022-08-11T02:25:43.692Z,4.00
2022-08-11T02:28:38.747Z,5.00
2022-08-11T02:32:24.870Z,4.10
2022-08-11T02:34:59.546Z,3.60
2022-08-11T02:37:44.900Z,3.30
2022-08-11T02:40:36.255Z,3.20
2022-08-11T02:43:28.188Z,3.30
2022-08-11T02:46:39.706Z,3.40
2022-08-11T02:50:11.535Z,3.40
2022-08-11T02:52:49.131Z,3.40
2022-08-11T02:55:56.367Z,3.30
2022-08-11T02:58:17.947Z,3.40
2022-08-11T03:01:02.817Z,3.30
2022-08-11T03:03:55.865Z,3.30
2022-08-11T03:06:41.604Z,3.60
2022-08-11T03:09:39.627Z,3.40
2022-08-11T03:12:33.549Z,3.20
2022-08-11T03:15:38.686Z,3.10
2022-08-11T03:18:34.727Z,3.00
2022-08-11T03:21:13.121Z,2.80
2022-08-11T03:24:08.972Z,3.10
2022-08-11T03:27:05.219Z,3.10
2022-08-11T03:29:51.099Z,3.30
2022-08-11T03:33:17.056Z,3.90
2022-08-11T03:36:28.434Z,3.40
2022-08-11T03:39:16.836Z,3.40
2022-08-11T03:42:22.169Z,3.60
2022-08-11T03:45:11.795Z,3.30
2022-08-11T03:48:31.623Z,3.50
2022-08-11T03:51:22.920Z,3.50
2022-08-11T03:54:10.779Z,3.30
2022-08-11T03:56:46.456Z,3.40
2022-08-11T03:59:30.289Z,3.50
2022-08-11T04:02:14.509Z,3.50
2022-08-11T04:05:18.091Z,3.00
2022-08-11T04:08:09.351Z,3.80
2022-08-11T04:10:55.959Z,6.20
2022-08-11T04:14:24.745Z,5.20
2022-08-11T04:17:19.956Z,5.30
2022-08-11T04:20:19.671Z,6.20
2022-08-11T04:23:03.188Z,8.00
2022-08-11T04:25:57.674Z,5.70
2022-08-11T04:28:50.179Z,5.30
2022-08-11T04:31:58.999Z,4.50
2022-08-11T04:34:44.890Z,4.60
2022-08-11T04:37:36.784Z,4.90
2022-08-11T04:40:31.955Z,4.80
2022-08-11T04:43:22.696Z,4.70
2022-08-11T04:45:57.614Z,4.40
2022-08-11T04:49:12.382Z,4.50
2022-08-11T04:52:36.050Z,4.10
2022-08-11T04:55:44.858Z,4.30
2022-08-11T04:59:04.275Z,4.10
2022-08-11T05:01:50.227Z,4.60
2022-08-11T05:04:40.961Z,3.70
2022-08-11T05:08:07.839Z,3.90
2022-08-11T05:10:48.619Z,4.20
2022-08-11T05:13:51.547Z,4.30
2022-08-11T05:16:47.227Z,4.30
2022-08-11T05:19:41.888Z,4.40
2022-08-11T05:22:32.478Z,3.90
2022-08-11T05:26:44.689Z,3.80
2022-08-11T05:28:57.717Z,4.30
2022-08-11T05:31:54.472Z,4.10
2022-08-11T05:34:49.772Z,3.70
2022-08-11T05:37:34.469Z,3.70
2022-08-11T05:40:30.425Z,3.50
2022-08-11T05:43:26.885Z,3.70
2022-08-11T05:46:31.486Z,3.70
2022-08-11T05:49:20.258Z,3.60
2022-08-11T05:52:12.858Z,3.70
2022-08-11T05:55:06.931Z,4.20
2022-08-11T05:57:49.408Z,3.60
2022-08-11T06:00:21.045Z,3.30
2022-08-11T06:02:56.906Z,3.30
2022-08-11T06:05:43.483Z,3.10
2022-08-11T06:08:14.535Z,3.00
2022-08-11T06:10:45.146Z,2.70
2022-08-11T06:13:17.468Z,2.80
2022-08-11T06:15:48.175Z,2.70
2022-08-11T06:18:18.195Z,3.20
2022-08-11T06:20:55.484Z,3.10
2022-08-11T06:23:31.088Z,3.20
2022-08-11T06:26:01.243Z,3.10
2022-08-11T06:28:35.760Z,3.00
2022-08-11T06:31:23.959Z,3.20
2022-08-11T06:34:01.819Z,2.70
2022-08-11T06:37:19.136Z,2.60
2022-08-11T06:40:13.836Z,2.60
2022-08-11T06:43:10.593Z,2.40
2022-08-11T06:46:03.410Z,2.90
2022-08-11T06:48:33.560Z,2.60
2022-08-11T06:51:12.328Z,2.50
2022-08-11T06:54:03.649Z,2.60
2022-08-11T06:57:28.410Z,2.70
2022-08-11T07:00:07.996Z,2.80
2022-08-11T07:02:46.177Z,2.40
2022-08-11T07:05:44.478Z,2.30
2022-08-11T07:09:02.987Z,2.60
2022-08-11T07:11:48.168Z,2.30
2022-08-11T07:14:41.595Z,2.30
2022-08-11T07:17:17.115Z,2.50
2022-08-11T07:20:11.455Z,2.20
2022-08-11T07:23:03.386Z,2.10
2022-08-11T07:25:57.062Z,2.30
2022-08-11T07:29:12.444Z,2.20
2022-08-11T07:31:51.229Z,1.80
2022-08-11T07:34:29.155Z,2.00
2022-08-11T07:37:00.905Z,2.30
2022-08-11T07:39:33.921Z,1.90
2022-08-11T07:42:07.818Z,2.20
2022-08-11T07:45:00.286Z,2.20
2022-08-11T07:47:49.058Z,2.00
2022-08-11T07:50:37.301Z,2.30
2022-08-11T07:53:06.242Z,2.10
2022-08-11T07:55:51.855Z,2.00
2022-08-11T07:58:45.665Z,1.90
2022-08-11T08:01:44.997Z,1.80
2022-08-11T08:04:36.769Z,1.90
2022-08-11T08:07:24.804Z,2.20
2022-08-11T08:13:05.166Z,1.80
2022-08-11T08:15:52.393Z,2.00
2022-08-11T08:18:26.633Z,1.80
2022-08-11T08:21:11.710Z,2.00
2022-08-11T08:23:42.578Z,1.70
2022-08-11T08:26:34.248Z,2.20
2022-08-11T08:29:25.706Z,1.80
2022-08-11T08:31:56.392Z,1.60
2022-08-11T08:34:25.863Z,1.40
2022-08-11T08:36:54.319Z,1.80
2022-08-11T08:39:23.283Z,1.60
2022-08-11T08:41:58.036Z,1.80
2022-08-11T08:44:44.961Z,1.50
2022-08-11T08:47:42.346Z,1.60
2022-08-11T08:50:21.604Z,1.90
2022-08-11T08:53:07.018Z,1.70
2022-08-11T08:55:35.750Z,1.60
2022-08-11T08:58:03.978Z,2.00
2022-08-11T09:00:45.544Z,1.70
2022-08-11T09:03:40.599Z,1.40
2022-08-11T09:06:04.247Z,1.50
2022-08-11T09:08:34.889Z,1.90
2022-08-11T09:11:24.307Z,1.70
2022-08-11T09:14:03.322Z,1.70
2022-08-11T09:16:39.008Z,1.50
2022-08-11T09:19:08.255Z,1.30
2022-08-11T09:21:47.993Z,1.60
2022-08-11T09:24:39.241Z,1.60
2022-08-11T09:27:10.667Z,1.30
2022-08-11T09:29:40.217Z,1.30
2022-08-11T09:32:09.093Z,1.50
2022-08-11T09:34:38.898Z,1.30
2022-08-11T09:37:55.794Z,1.50
2022-08-11T09:40:30.801Z,1.60
2022-08-11T09:43:22.116Z,1.60
2022-08-11T09:45:53.123Z,1.40
2022-08-11T09:48:24.258Z,1.30
2022-08-11T09:50:58.697Z,1.40
2022-08-11T09:53:36.328Z,1.50
2022-08-11T09:56:33.031Z,1.50
2022-08-11T09:59:04.359Z,1.40
2022-08-11T10:01:42.608Z,1.30
2022-08-11T10:04:16.713Z,1.40
2022-08-11T10:07:04.713Z,1.80
2022-08-11T10:09:49.576Z,1.30
2022-08-11T10:12:41.363Z,1.30
2022-08-11T10:15:33.478Z,1.40
2022-08-11T10:18:28.341Z,1.30
2022-08-11T10:21:15.237Z,1.10
2022-08-11T10:24:05.441Z,1.50
2022-08-11T10:27:10.607Z,1.10
2022-08-11T10:30:01.979Z,1.20
2022-08-11T10:32:59.065Z,1.00
2022-08-11T10:35:32.696Z,1.30
2022-08-11T10:38:08.558Z,1.30
2022-08-11T10:40:40.740Z,1.40
2022-08-11T10:44:01.163Z,1.20
2022-08-11T10:46:30.309Z,1.50
2022-08-11T10:49:00.801Z,1.20
2022-08-11T10:51:53.759Z,1.20
2022-08-11T10:54:44.619Z,1.00
2022-08-11T10:57:37.480Z,1.10
2022-08-11T11:00:09.566Z,1.20
2022-08-11T11:02:39.706Z,1.10
2022-08-11T11:05:31.242Z,1.20
2022-08-11T11:08:35.012Z,1.20
2022-08-11T11:11:08.057Z,1.10
2022-08-11T11:13:57.363Z,1.20
2022-08-11T11:16:51.890Z,1.10
2022-08-11T11:19:25.011Z,1.00
2022-08-11T11:22:21.281Z,0.90
2022-08-11T11:25:35.502Z,1.10
2022-08-11T11:28:39.001Z,1.20
2022-08-11T11:31:32.821Z,1.10
2022-08-11T11:34:23.810Z,1.40
2022-08-11T11:36:56.642Z,1.20
2022-08-11T11:39:30.834Z,0.90
2022-08-11T11:42:08.896Z,1.20
2022-08-11T11:44:45.382Z,1.00
2022-08-11T11:47:14.483Z,0.90
2022-08-11T11:49:44.902Z,1.20
2022-08-11T11:52:19.457Z,1.30
2022-08-11T11:54:50.065Z,1.10
2022-08-11T11:57:41.741Z,1.10
2022-08-11T12:00:49.385Z,1.20
2022-08-11T12:03:19.814Z,1.00
2022-08-11T12:05:49.885Z,1.20
2022-08-11T12:08:21.602Z,1.00
2022-08-11T12:11:18.789Z,1.00
2022-08-11T12:13:52.677Z,1.00
2022-08-11T12:16:34.337Z,1.20
2022-08-11T12:19:08.144Z,1.10
2022-08-11T12:21:38.338Z,1.10
2022-08-11T12:24:28.567Z,1.30
2022-08-11T12:27:18.460Z,1.10
2022-08-11T12:29:55.542Z,1.00
2022-08-11T12:32:32.262Z,1.10
2022-08-11T12:35:01.594Z,1.10
2022-08-11T12:37:39.729Z,1.00
2022-08-11T12:40:49.682Z,1.10
2022-08-11T12:44:07.301Z,1.40
2022-08-11T12:46:37.630Z,1.60
2022-08-11T12:49:34.377Z,1.30
2022-08-11T12:52:15.838Z,1.30
2022-08-11T12:54:59.433Z,1.30
2022-08-11T12:57:55.487Z,1.20
2022-08-11T13:00:45.153Z,1.90
2022-08-11T13:03:33.796Z,1.60
2022-08-11T13:06:04.014Z,1.20
2022-08-11T13:08:36.831Z,1.40
2022-08-11T13:11:56.876Z,1.30
2022-08-11T13:14:19.795Z,1.40
2022-08-11T13:17:07.827Z,1.30
2022-08-11T13:19:38.110Z,1.10
2022-08-11T13:22:07.073Z,1.20
2022-08-11T13:24:36.332Z,1.20
2022-08-11T13:27:05.600Z,1.20
2022-08-11T13:29:39.852Z,1.20
2022-08-11T13:32:11.243Z,1.30
2022-08-11T13:34:42.736Z,1.40
2022-08-11T13:37:15.153Z,1.20
2022-08-11T13:39:49.349Z,1.40
2022-08-11T13:42:20.469Z,1.20
2022-08-11T13:44:49.585Z,1.50
2022-08-11T13:47:21.876Z,1.10
2022-08-11T13:49:51.826Z,1.20
2022-08-11T13:52:20.573Z,1.40
2022-08-11T13:54:53.046Z,1.30
2022-08-11T13:58:09.114Z,1.20
2022-08-11T14:00:13.210Z,1.10
2022-08-11T14:02:58.202Z,1.00
2022-08-11T14:05:38.730Z,1.10
2022-08-11T14:08:37.670Z,1.20
2022-08-11T14:12:22.562Z,1.10
2022-08-11T14:14:23.206Z,1.00
2022-08-11T14:16:57.920Z,1.10
2022-08-11T14:19:28.204Z,1.20
2022-08-11T14:22:08.554Z,1.50
2022-08-11T14:24:41.687Z,1.30
2022-08-11T14:28:34.036Z,1.20
2022-08-11T15:31:56.867Z,1.90
2022-08-11T15:34:47.664Z,1.20
2022-08-11T15:37:31.838Z,1.50
2022-08-11T15:40:41.359Z,1.60
2022-08-11T15:43:36.233Z,2.30
2022-08-11T15:46:35.293Z,1.80
2022-08-11T15:49:22.088Z,5.20
2022-08-11T15:52:09.716Z,1.30
2022-08-11T15:54:43.031Z,1.70
2022-08-11T15:57:39.832Z,1.20
2022-08-11T16:00:29.543Z,1.30
2022-08-11T16:03:19.643Z,1.30
2022-08-11T16:05:52.989Z,1.70
2022-08-11T16:08:27.915Z,1.20
2022-08-11T16:11:04.465Z,1.30
2022-08-11T16:13:40.268Z,1.60
2022-08-11T16:16:18.593Z,1.90
2022-08-11T16:18:59.516Z,1.30
2022-08-11T16:21:36.683Z,1.10
2022-08-11T16:26:30.621Z,1.60
2022-08-11T16:27:10.235Z,1.10
2022-08-11T16:29:47.759Z,1.20
2022-08-11T16:32:23.732Z,1.50
2022-08-11T16:35:19.705Z,1.40
2022-08-11T16:38:11.166Z,1.20
2022-08-11T16:40:42.757Z,1.30
2022-08-11T16:43:35.560Z,1.50
2022-08-11T16:46:26.463Z,1.80
2022-08-11T16:48:55.687Z,1.20
2022-08-11T16:51:23.831Z,1.40
2022-08-11T16:54:05.329Z,2.80
2022-08-11T16:56:50.634Z,3.00
2022-08-11T16:59:37.062Z,2.10
2022-08-11T17:02:41.215Z,4.00
2022-08-11T17:05:39.076Z,1.60
2022-08-11T17:08:57.446Z,1.50
2022-08-11T17:11:53.192Z,3.40
2022-08-11T17:14:36.945Z,1.60
2022-08-11T17:17:32.013Z,1.50
2022-08-11T17:20:40.240Z,2.10
2022-08-11T17:23:23.820Z,1.80
2022-08-11T17:25:59.420Z,1.60
2022-08-11T17:28:35.107Z,1.50
2022-08-11T17:31:24.546Z,1.80
2022-08-11T17:34:16.259Z,2.80
2022-08-11T17:36:45.823Z,2.80
2022-08-11T17:39:15.734Z,4.70
2022-08-11T17:42:05.083Z,2.60
2022-08-11T17:44:54.187Z,2.10
2022-08-11T17:47:45.580Z,1.50
2022-08-11T17:50:17.859Z,1.50
2022-08-11T17:53:08.510Z,2.00
2022-08-11T17:55:59.058Z,1.50
2022-08-11T17:58:47.811Z,1.90
2022-08-11T18:01:19.460Z,1.80
2022-08-11T18:03:53.066Z,1.50
2022-08-11T18:06:33.696Z,1.80
2022-08-11T18:09:44.035Z,1.90
2022-08-11T18:12:34.126Z,2.30
2022-08-11T18:15:21.882Z,1.80
2022-08-11T18:18:13.591Z,1.90
2022-08-11T18:21:02.623Z,2.30
2022-08-11T18:23:51.134Z,1.70
2022-08-11T18:26:43.691Z,1.50
2022-08-11T18:29:31.978Z,1.80
2022-08-11T18:32:49.275Z,1.90
2022-08-11T18:35:40.155Z,2.00
2022-08-11T18:38:34.893Z,1.70
2022-08-11T18:41:27.244Z,1.80
2022-08-11T18:44:19.230Z,2.10
2022-08-11T18:47:09.109Z,1.90
2022-08-11T18:50:05.189Z,2.30
2022-08-11T18:52:53.654Z,2.10
2022-08-11T18:55:42.679Z,2.10
2022-08-11T18:58:34.430Z,1.80
2022-08-11T19:01:25.242Z,2.20
2022-08-11T19:04:17.318Z,1.70
2022-08-11T19:07:11.912Z,2.20
2022-08-11T19:10:03.103Z,2.20
2022-08-11T19:12:59.320Z,2.10
2022-08-11T19:15:47.205Z,2.50
2022-08-11T19:18:39.905Z,2.70
2022-08-11T19:21:30.537Z,2.60
2022-08-11T19:24:23.034Z,2.70
2022-08-11T19:27:13.083Z,2.60
2022-08-11T19:30:13.051Z,2.70
2022-08-11T19:33:00.305Z,2.40
2022-08-11T19:35:50.779Z,2.50
2022-08-11T19:38:39.773Z,2.90
2022-08-11T19:41:56.627Z,2.50
2022-08-11T19:44:36.043Z,2.30
2022-08-11T19:47:25.554Z,2.00
2022-08-11T19:50:21.899Z,2.30
2022-08-11T19:53:17.389Z,2.70
2022-08-11T19:56:10.804Z,2.70
2022-08-11T19:58:58.835Z,2.30
2022-08-11T20:02:01.329Z,2.30
2022-08-11T20:04:56.320Z,2.40
2022-08-11T20:07:46.363Z,2.50
2022-08-11T20:10:39.131Z,2.50
2022-08-11T20:13:27.766Z,2.50
2022-08-11T20:16:16.013Z,2.60
2022-08-11T20:19:06.399Z,2.60
2022-08-11T20:21:54.023Z,2.50
2022-08-11T20:27:30.389Z,2.90
2022-08-11T20:30:19.922Z,2.30
2022-08-11T20:33:11.054Z,2.70
2022-08-11T20:36:04.684Z,2.40
2022-08-11T20:38:56.600Z,2.40
2022-08-11T20:41:58.854Z,2.30
2022-08-11T20:44:49.941Z,2.00
2022-08-11T20:50:52.365Z,2.40
2022-08-11T20:53:43.279Z,2.70
2022-08-11T20:56:31.654Z,2.50
2022-08-11T20:59:22.102Z,2.50
2022-08-11T21:02:12.416Z,2.60
2022-08-11T21:05:01.214Z,2.30
2022-08-11T21:07:58.773Z,2.30
2022-08-11T21:10:52.380Z,2.10
2022-08-11T21:13:46.106Z,2.20
2022-08-11T21:16:39.039Z,2.10
2022-08-11T21:19:59.941Z,2.70
2022-08-11T21:22:59.446Z,2.20
2022-08-11T21:26:03.293Z,2.50
2022-08-11T21:28:55.265Z,2.30
2022-08-11T21:31:45.358Z,2.50
2022-08-11T21:34:35.243Z,2.30
2022-08-11T21:37:24.662Z,2.30
2022-08-11T21:40:17.114Z,2.30
2022-08-11T21:43:06.724Z,2.20
2022-08-11T21:45:57.290Z,2.20
2022-08-11T21:48:46.202Z,2.20
2022-08-11T21:51:34.536Z,2.50
2022-08-11T21:54:23.742Z,2.30
2022-08-11T21:57:11.876Z,2.40
2022-08-11T22:00:12.012Z,2.40
2022-08-11T22:03:01.616Z,2.50
2022-08-11T22:05:57.285Z,3.00
2022-08-11T22:08:47.067Z,2.90
2022-08-11T22:11:36.250Z,2.40
2022-08-11T22:14:24.825Z,2.30
2022-08-11T22:17:13.622Z,2.20
2022-08-11T22:20:01.873Z,2.60
2022-08-11T22:22:52.762Z,2.80
2022-08-11T22:25:51.216Z,2.60
2022-08-11T22:28:40.794Z,2.90
2022-08-11T22:31:28.945Z,2.70
2022-08-11T22:34:17.589Z,2.40
2022-08-11T22:37:07.304Z,2.70
2022-08-11T22:40:02.388Z,2.90
2022-08-11T22:42:52.253Z,2.20
2022-08-11T22:45:40.518Z,3.00
2022-08-11T22:48:29.950Z,2.90
2022-08-11T22:51:18.647Z,2.30
2022-08-11T22:54:08.810Z,2.50
2022-08-11T22:56:58.620Z,2.40
2022-08-11T22:59:46.985Z,2.50
2022-08-11T23:02:35.253Z,3.10
2022-08-11T23:05:24.177Z,2.60
2022-08-11T23:08:13.582Z,2.60
2022-08-11T23:11:02.500Z,2.90
2022-08-11T23:13:51.338Z,2.80
2022-08-11T23:16:40.137Z,2.50
2022-08-11T23:20:08.745Z,2.40
2022-08-11T23:22:49.144Z,3.00
2022-08-11T23:25:42.395Z,3.10
2022-08-11T23:28:34.049Z,2.80
2022-08-11T23:31:23.441Z,2.80
2022-08-11T23:35:02.747Z,2.70
2022-08-11T23:37:25.016Z,2.70
2022-08-11T23:40:14.649Z,2.80
2022-08-11T23:43:02.675Z,2.80
2022-08-11T23:45:50.812Z,2.50
2022-08-11T23:48:39.634Z,3.00
2022-08-11T23:51:40.753Z,2.70
2022-08-11T23:54:36.945Z,2.20
2022-08-11T23:57:26.468Z,2.60
